TIBGX MRCE-MRBT
Flight info
| Callsign | TIBGX |
|---|---|
| Flight time | 0h 57m |
| Altitude | 13500 |
| Route | FINCA/N0173F150 |
| Aircraft | C208/L-SDFGR/C |
Departure
| Time | 2026-04-28 02:25 |
|---|---|
| Airport | Carate Airport (MRCE) |
Arrival
| Time | 2026-04-28 03:23 |
|---|---|
| Airport | Barra del Tortuguero (MRBT) |
| Time | Latitude | Longitude | Altitude | Speed | Heading |
|---|---|---|---|---|---|
| 2026-04-28 02:18 | 8.44139 | -83.45620 | 27 ft | 0 kts | 282° |
| 2026-04-28 02:24 | 8.44157 | -83.45712 | 31 ft | 42 kts | 282° |
| 2026-04-28 02:24 | 8.44256 | -83.46183 | 50 ft | 88 kts | 274° |
| 2026-04-28 02:24 | 8.44202 | -83.46826 | 284 ft | 96 kts | 261° |
| 2026-04-28 02:25 | 8.44083 | -83.47498 | 587 ft | 95 kts | 257° |
| 2026-04-28 02:25 | 8.43925 | -83.48110 | 957 ft | 87 kts | 251° |
| 2026-04-28 02:25 | 8.43745 | -83.48707 | 1251 ft | 87 kts | 259° |
| 2026-04-28 02:25 | 8.43792 | -83.49307 | 1537 ft | 88 kts | 287° |
| 2026-04-28 02:26 | 8.44115 | -83.49832 | 1834 ft | 88 kts | 311° |
| 2026-04-28 02:26 | 8.44598 | -83.50185 | 2157 ft | 83 kts | 332° |
| 2026-04-28 02:26 | 8.45161 | -83.50394 | 2395 ft | 91 kts | 336° |
| 2026-04-28 02:26 | 8.45816 | -83.50648 | 2564 ft | 111 kts | 338° |
| 2026-04-28 02:27 | 8.46568 | -83.50909 | 2863 ft | 113 kts | 338° |
| 2026-04-28 02:27 | 8.47259 | -83.51192 | 3303 ft | 104 kts | 334° |
| 2026-04-28 02:27 | 8.47908 | -83.51491 | 3679 ft | 101 kts | 333° |
| 2026-04-28 02:27 | 8.48535 | -83.51796 | 4026 ft | 99 kts | 332° |
| 2026-04-28 02:28 | 8.49141 | -83.52095 | 4378 ft | 95 kts | 332° |
| 2026-04-28 02:28 | 8.49721 | -83.52380 | 4731 ft | 90 kts | 332° |
| 2026-04-28 02:28 | 8.50270 | -83.52647 | 5077 ft | 84 kts | 332° |
| 2026-04-28 02:28 | 8.50797 | -83.52817 | 5401 ft | 74 kts | 337° |
| 2026-04-28 02:29 | 8.51271 | -83.52989 | 5596 ft | 74 kts | 338° |
| 2026-04-28 02:29 | 8.51756 | -83.53155 | 5783 ft | 75 kts | 334° |
| 2026-04-28 02:29 | 8.52301 | -83.53431 | 5827 ft | 102 kts | 327° |
| 2026-04-28 02:29 | 8.52956 | -83.53727 | 6130 ft | 102 kts | 357° |
| 2026-04-28 02:30 | 8.53609 | -83.53772 | 6532 ft | 88 kts | 335° |
| 2026-04-28 02:30 | 8.54164 | -83.53947 | 6841 ft | 82 kts | 341° |
| 2026-04-28 02:30 | 8.54719 | -83.54126 | 7029 ft | 89 kts | 341° |
| 2026-04-28 02:30 | 8.55357 | -83.54322 | 7212 ft | 102 kts | 340° |
| 2026-04-28 02:31 | 8.56056 | -83.54543 | 7450 ft | 109 kts | 340° |
| 2026-04-28 02:31 | 8.56781 | -83.54779 | 7722 ft | 110 kts | 340° |
| 2026-04-28 02:31 | 8.57507 | -83.55016 | 8009 ft | 107 kts | 340° |
| 2026-04-28 02:31 | 8.58197 | -83.55245 | 8333 ft | 101 kts | 340° |
| 2026-04-28 02:32 | 8.58844 | -83.55461 | 8627 ft | 94 kts | 340° |
| 2026-04-28 02:32 | 8.59437 | -83.55658 | 8913 ft | 85 kts | 339° |
| 2026-04-28 02:32 | 8.59957 | -83.55926 | 7904 ft | 102 kts | 329° |
| 2026-04-28 02:32 | 8.60894 | -83.56043 | 7466 ft | 134 kts | 6° |
| 2026-04-28 02:33 | 8.61762 | -83.56019 | 7440 ft | 119 kts | 352° |
| 2026-04-28 02:33 | 8.62583 | -83.56203 | 7425 ft | 125 kts | 343° |
| 2026-04-28 02:33 | 8.63424 | -83.56488 | 7503 ft | 132 kts | 335° |
| 2026-04-28 02:33 | 8.64261 | -83.56898 | 7650 ft | 131 kts | 330° |
| 2026-04-28 02:34 | 8.65051 | -83.57349 | 7853 ft | 127 kts | 332° |
| 2026-04-28 02:34 | 8.65840 | -83.57677 | 8110 ft | 120 kts | 340° |
| 2026-04-28 02:34 | 8.66614 | -83.57929 | 8359 ft | 114 kts | 340° |
| 2026-04-28 02:34 | 8.67346 | -83.58172 | 8594 ft | 110 kts | 340° |
| 2026-04-28 02:35 | 8.68058 | -83.58408 | 8829 ft | 106 kts | 340° |
| 2026-04-28 02:35 | 8.68741 | -83.58635 | 9061 ft | 101 kts | 340° |
| 2026-04-28 02:35 | 8.69404 | -83.58857 | 9299 ft | 101 kts | 339° |
| 2026-04-28 02:35 | 8.70072 | -83.59077 | 9545 ft | 101 kts | 340° |
| 2026-04-28 02:36 | 8.70742 | -83.59299 | 9801 ft | 101 kts | 340° |
| 2026-04-28 02:36 | 8.71414 | -83.59522 | 10044 ft | 102 kts | 340° |
| 2026-04-28 02:36 | 8.72081 | -83.59740 | 10324 ft | 98 kts | 340° |
| 2026-04-28 02:36 | 8.72712 | -83.59951 | 10603 ft | 92 kts | 339° |
| 2026-04-28 02:37 | 8.73292 | -83.60146 | 10861 ft | 83 kts | 338° |
| 2026-04-28 02:37 | 8.73906 | -83.60350 | 10907 ft | 102 kts | 341° |
| 2026-04-28 02:37 | 8.74600 | -83.60575 | 11096 ft | 108 kts | 340° |
| 2026-04-28 02:37 | 8.75339 | -83.60818 | 11282 ft | 115 kts | 340° |
| 2026-04-28 02:38 | 8.76125 | -83.61077 | 11466 ft | 122 kts | 340° |
| 2026-04-28 02:38 | 8.76959 | -83.61353 | 11645 ft | 130 kts | 340° |
| 2026-04-28 02:38 | 8.77825 | -83.61638 | 11879 ft | 131 kts | 340° |
| 2026-04-28 02:38 | 8.78690 | -83.61926 | 12141 ft | 131 kts | 340° |
| 2026-04-28 02:39 | 8.79554 | -83.62212 | 12394 ft | 130 kts | 340° |
| 2026-04-28 02:39 | 8.80416 | -83.62498 | 12644 ft | 130 kts | 340° |
| 2026-04-28 02:39 | 8.81275 | -83.62783 | 12894 ft | 130 kts | 340° |
| 2026-04-28 02:39 | 8.82135 | -83.63068 | 13141 ft | 130 kts | 340° |
| 2026-04-28 02:40 | 8.82993 | -83.63352 | 13389 ft | 130 kts | 340° |
| 2026-04-28 02:40 | 8.83871 | -83.63646 | 13499 ft | 141 kts | 340° |
| 2026-04-28 02:40 | 8.84854 | -83.63969 | 13511 ft | 156 kts | 341° |
| 2026-04-28 02:40 | 8.85918 | -83.64320 | 13510 ft | 165 kts | 341° |
| 2026-04-28 02:41 | 8.87026 | -83.64686 | 13509 ft | 170 kts | 341° |
| 2026-04-28 02:41 | 8.88166 | -83.65065 | 13509 ft | 174 kts | 341° |
| 2026-04-28 02:41 | 8.89326 | -83.65451 | 13510 ft | 176 kts | 341° |
| 2026-04-28 02:41 | 8.90480 | -83.65834 | 13509 ft | 178 kts | 341° |
| 2026-04-28 02:42 | 8.91656 | -83.66224 | 13509 ft | 178 kts | 341° |
| 2026-04-28 02:42 | 8.92838 | -83.66617 | 13509 ft | 179 kts | 341° |
| 2026-04-28 02:42 | 8.94023 | -83.67010 | 13510 ft | 179 kts | 341° |
| 2026-04-28 02:42 | 8.95212 | -83.67404 | 13509 ft | 179 kts | 341° |
| 2026-04-28 02:43 | 8.96399 | -83.67798 | 13509 ft | 180 kts | 341° |
| 2026-04-28 02:43 | 8.97587 | -83.68193 | 13509 ft | 180 kts | 341° |
| 2026-04-28 02:43 | 8.98774 | -83.68591 | 13509 ft | 180 kts | 341° |
| 2026-04-28 02:43 | 8.99963 | -83.68981 | 13509 ft | 180 kts | 341° |
| 2026-04-28 02:44 | 9.01151 | -83.69375 | 13508 ft | 180 kts | 341° |
| 2026-04-28 02:44 | 9.02326 | -83.69766 | 13097 ft | 175 kts | 342° |
| 2026-04-28 02:44 | 9.03465 | -83.70144 | 13219 ft | 170 kts | 342° |
| 2026-04-28 02:44 | 9.04582 | -83.70515 | 13338 ft | 168 kts | 342° |
| 2026-04-28 02:45 | 9.05688 | -83.70882 | 13439 ft | 168 kts | 342° |
| 2026-04-28 02:45 | 9.06820 | -83.71258 | 13444 ft | 174 kts | 342° |
| 2026-04-28 02:45 | 9.07979 | -83.71642 | 13454 ft | 177 kts | 342° |
| 2026-04-28 02:45 | 9.09163 | -83.72035 | 13455 ft | 180 kts | 342° |
| 2026-04-28 02:46 | 9.10338 | -83.72425 | 13464 ft | 181 kts | 342° |
| 2026-04-28 02:46 | 9.11537 | -83.72824 | 13465 ft | 182 kts | 342° |
| 2026-04-28 02:46 | 9.12746 | -83.73226 | 13467 ft | 183 kts | 342° |
| 2026-04-28 02:46 | 9.13959 | -83.73629 | 13467 ft | 183 kts | 342° |
| 2026-04-28 02:47 | 9.15174 | -83.74032 | 13471 ft | 184 kts | 342° |
| 2026-04-28 02:47 | 9.16388 | -83.74436 | 13473 ft | 184 kts | 342° |
| 2026-04-28 02:47 | 9.17603 | -83.74840 | 13475 ft | 184 kts | 342° |
| 2026-04-28 02:47 | 9.18818 | -83.75244 | 13481 ft | 184 kts | 342° |
| 2026-04-28 02:48 | 9.20033 | -83.75647 | 13481 ft | 184 kts | 342° |
| 2026-04-28 02:48 | 9.21251 | -83.76052 | 13485 ft | 184 kts | 342° |
| 2026-04-28 02:48 | 9.22467 | -83.76457 | 13485 ft | 184 kts | 342° |
| 2026-04-28 02:48 | 9.23682 | -83.76860 | 13488 ft | 184 kts | 342° |
| 2026-04-28 02:49 | 9.24882 | -83.77259 | 13492 ft | 184 kts | 342° |
| 2026-04-28 02:49 | 9.26099 | -83.77664 | 13495 ft | 184 kts | 342° |
| 2026-04-28 02:49 | 9.27316 | -83.78069 | 13494 ft | 184 kts | 342° |
| 2026-04-28 02:49 | 9.28535 | -83.78475 | 13501 ft | 184 kts | 342° |
| 2026-04-28 02:50 | 9.29752 | -83.78879 | 13503 ft | 184 kts | 342° |
| 2026-04-28 02:50 | 9.30968 | -83.79283 | 13506 ft | 184 kts | 342° |
| 2026-04-28 02:50 | 9.32188 | -83.79689 | 13504 ft | 184 kts | 342° |
| 2026-04-28 02:50 | 9.33407 | -83.80094 | 13511 ft | 184 kts | 342° |
| 2026-04-28 02:51 | 9.34622 | -83.80499 | 13513 ft | 184 kts | 342° |
| 2026-04-28 02:51 | 9.35839 | -83.80904 | 13514 ft | 184 kts | 342° |
| 2026-04-28 02:51 | 9.37050 | -83.81306 | 13511 ft | 182 kts | 342° |
| 2026-04-28 02:51 | 9.38252 | -83.81707 | 13512 ft | 182 kts | 342° |
| 2026-04-28 02:52 | 9.39428 | -83.82098 | 13519 ft | 182 kts | 342° |
| 2026-04-28 02:52 | 9.40640 | -83.82501 | 13525 ft | 182 kts | 342° |
| 2026-04-28 02:52 | 9.41849 | -83.82903 | 13527 ft | 183 kts | 342° |
| 2026-04-28 02:52 | 9.43078 | -83.83313 | 13531 ft | 184 kts | 342° |
| 2026-04-28 02:53 | 9.44298 | -83.83719 | 13527 ft | 184 kts | 342° |
| 2026-04-28 02:53 | 9.45512 | -83.84123 | 13531 ft | 183 kts | 342° |
| 2026-04-28 02:53 | 9.46723 | -83.84526 | 13535 ft | 183 kts | 342° |
| 2026-04-28 02:53 | 9.47913 | -83.84922 | 13535 ft | 182 kts | 342° |
| 2026-04-28 02:54 | 9.49116 | -83.85323 | 13540 ft | 182 kts | 342° |
| 2026-04-28 02:54 | 9.50322 | -83.85724 | 13536 ft | 182 kts | 342° |
| 2026-04-28 02:54 | 9.51540 | -83.86130 | 13540 ft | 182 kts | 342° |
| 2026-04-28 02:54 | 9.52731 | -83.86527 | 13543 ft | 183 kts | 342° |
| 2026-04-28 02:55 | 9.53937 | -83.86928 | 13545 ft | 182 kts | 342° |
| 2026-04-28 02:55 | 9.55140 | -83.87329 | 13548 ft | 182 kts | 342° |
| 2026-04-28 02:55 | 9.56350 | -83.87731 | 13546 ft | 183 kts | 343° |
| 2026-04-28 02:55 | 9.57558 | -83.88135 | 13548 ft | 182 kts | 343° |
| 2026-04-28 02:56 | 9.58762 | -83.88536 | 13548 ft | 182 kts | 342° |
| 2026-04-28 02:56 | 9.59961 | -83.88935 | 13546 ft | 181 kts | 342° |
| 2026-04-28 02:56 | 9.61157 | -83.89335 | 13557 ft | 181 kts | 342° |
| 2026-04-28 02:56 | 9.62359 | -83.89736 | 13553 ft | 182 kts | 343° |
| 2026-04-28 02:57 | 9.63568 | -83.90131 | 13557 ft | 182 kts | 343° |
| 2026-04-28 02:57 | 9.64762 | -83.90528 | 13554 ft | 183 kts | 342° |
| 2026-04-28 02:57 | 9.65968 | -83.90930 | 13564 ft | 183 kts | 343° |
| 2026-04-28 02:57 | 9.67176 | -83.91333 | 13561 ft | 183 kts | 343° |
| 2026-04-28 02:58 | 9.68385 | -83.91737 | 13563 ft | 182 kts | 342° |
| 2026-04-28 02:58 | 9.69589 | -83.92140 | 13563 ft | 182 kts | 342° |
| 2026-04-28 02:58 | 9.70798 | -83.92543 | 13570 ft | 183 kts | 343° |
| 2026-04-28 02:58 | 9.72006 | -83.92945 | 13567 ft | 183 kts | 343° |
| 2026-04-28 02:59 | 9.73150 | -83.93326 | 13566 ft | 182 kts | 343° |
| 2026-04-28 02:59 | 9.74362 | -83.93729 | 13568 ft | 183 kts | 343° |
| 2026-04-28 02:59 | 9.75571 | -83.94131 | 13570 ft | 183 kts | 342° |
| 2026-04-28 02:59 | 9.76782 | -83.94535 | 13567 ft | 183 kts | 342° |
| 2026-04-28 03:00 | 9.77585 | -83.94803 | 13570 ft | 183 kts | 343° |
| 2026-04-28 03:00 | 9.78798 | -83.95208 | 13574 ft | 183 kts | 343° |
| 2026-04-28 03:00 | 9.80408 | -83.95745 | 13577 ft | 183 kts | 343° |
| 2026-04-28 03:00 | 9.81619 | -83.96149 | 13578 ft | 183 kts | 342° |
| 2026-04-28 03:01 | 9.82440 | -83.96422 | 13575 ft | 183 kts | 342° |
| 2026-04-28 03:01 | 9.83651 | -83.96825 | 13587 ft | 183 kts | 343° |
| 2026-04-28 03:01 | 9.84847 | -83.97224 | 13589 ft | 183 kts | 342° |
| 2026-04-28 03:01 | 9.86054 | -83.97627 | 13587 ft | 183 kts | 343° |
| 2026-04-28 03:02 | 9.87266 | -83.98031 | 13590 ft | 183 kts | 342° |
| 2026-04-28 03:02 | 9.88477 | -83.98434 | 13593 ft | 183 kts | 343° |
| 2026-04-28 03:02 | 9.89683 | -83.98841 | 13598 ft | 183 kts | 343° |
| 2026-04-28 03:02 | 9.90893 | -83.99249 | 13594 ft | 183 kts | 342° |
| 2026-04-28 03:03 | 9.92099 | -83.99653 | 13598 ft | 182 kts | 342° |
| 2026-04-28 03:03 | 9.93303 | -84.00060 | 13590 ft | 182 kts | 342° |
| 2026-04-28 03:03 | 9.94508 | -84.00469 | 13589 ft | 182 kts | 342° |
| 2026-04-28 03:03 | 9.95711 | -84.00876 | 13589 ft | 182 kts | 342° |
| 2026-04-28 03:04 | 9.96913 | -84.01281 | 13592 ft | 182 kts | 343° |
| 2026-04-28 03:04 | 9.98120 | -84.01687 | 13599 ft | 183 kts | 342° |
| 2026-04-28 03:04 | 9.99327 | -84.02094 | 13598 ft | 183 kts | 343° |
| 2026-04-28 03:04 | 10.00537 | -84.02499 | 13599 ft | 183 kts | 342° |
| 2026-04-28 03:05 | 10.01742 | -84.02906 | 13601 ft | 182 kts | 342° |
| 2026-04-28 03:05 | 10.02948 | -84.03298 | 13594 ft | 182 kts | 349° |
| 2026-04-28 03:05 | 10.04169 | -84.03138 | 13586 ft | 180 kts | 28° |
| 2026-04-28 03:05 | 10.04984 | -84.02207 | 13584 ft | 181 kts | 64° |
| 2026-04-28 03:06 | 10.05468 | -84.01041 | 13589 ft | 181 kts | 62° |
| 2026-04-28 03:06 | 10.06171 | -83.99982 | 13589 ft | 180 kts | 46° |
| 2026-04-28 03:06 | 10.07076 | -83.99096 | 13591 ft | 181 kts | 41° |
| 2026-04-28 03:06 | 10.08008 | -83.98231 | 13580 ft | 181 kts | 42° |
| 2026-04-28 03:07 | 10.08928 | -83.97357 | 13579 ft | 181 kts | 42° |
| 2026-04-28 03:07 | 10.09847 | -83.96479 | 13574 ft | 181 kts | 42° |
| 2026-04-28 03:07 | 10.10766 | -83.95602 | 13573 ft | 182 kts | 42° |
| 2026-04-28 03:07 | 10.11687 | -83.94723 | 13567 ft | 182 kts | 42° |
| 2026-04-28 03:08 | 10.12610 | -83.93844 | 13561 ft | 182 kts | 42° |
| 2026-04-28 03:08 | 10.13533 | -83.92964 | 13561 ft | 181 kts | 42° |
| 2026-04-28 03:08 | 10.14451 | -83.92088 | 13558 ft | 182 kts | 42° |
| 2026-04-28 03:08 | 10.15373 | -83.91208 | 13550 ft | 182 kts | 42° |
| 2026-04-28 03:09 | 10.16284 | -83.90338 | 13540 ft | 182 kts | 42° |
| 2026-04-28 03:09 | 10.17205 | -83.89460 | 13536 ft | 182 kts | 42° |
| 2026-04-28 03:09 | 10.18127 | -83.88579 | 13533 ft | 182 kts | 42° |
| 2026-04-28 03:09 | 10.19048 | -83.87698 | 13534 ft | 182 kts | 42° |
| 2026-04-28 03:10 | 10.19975 | -83.86814 | 13528 ft | 183 kts | 42° |
| 2026-04-28 03:10 | 10.20903 | -83.85929 | 13528 ft | 183 kts | 42° |
| 2026-04-28 03:10 | 10.21829 | -83.85046 | 13488 ft | 184 kts | 42° |
| 2026-04-28 03:10 | 10.22782 | -83.84138 | 13242 ft | 194 kts | 42° |
| 2026-04-28 03:11 | 10.23775 | -83.83188 | 12992 ft | 195 kts | 43° |
| 2026-04-28 03:11 | 10.24752 | -83.82257 | 12743 ft | 190 kts | 43° |
| 2026-04-28 03:11 | 10.25712 | -83.81341 | 12492 ft | 188 kts | 42° |
| 2026-04-28 03:11 | 10.26664 | -83.80433 | 12241 ft | 187 kts | 43° |
| 2026-04-28 03:12 | 10.27605 | -83.79533 | 12001 ft | 186 kts | 43° |
| 2026-04-28 03:12 | 10.28545 | -83.78635 | 11759 ft | 185 kts | 43° |
| 2026-04-28 03:12 | 10.29482 | -83.77739 | 11514 ft | 185 kts | 43° |
| 2026-04-28 03:12 | 10.30418 | -83.76846 | 11273 ft | 184 kts | 43° |
| 2026-04-28 03:13 | 10.31348 | -83.75957 | 11036 ft | 183 kts | 43° |
| 2026-04-28 03:13 | 10.32266 | -83.75080 | 10802 ft | 183 kts | 43° |
| 2026-04-28 03:13 | 10.33205 | -83.74182 | 10567 ft | 183 kts | 43° |
| 2026-04-28 03:13 | 10.34121 | -83.73307 | 10329 ft | 178 kts | 43° |
| 2026-04-28 03:14 | 10.35010 | -83.72456 | 10099 ft | 174 kts | 44° |
| 2026-04-28 03:14 | 10.35636 | -83.71423 | 9855 ft | 173 kts | 67° |
| 2026-04-28 03:14 | 10.36071 | -83.70287 | 9606 ft | 171 kts | 68° |
| 2026-04-28 03:14 | 10.36502 | -83.69162 | 9351 ft | 170 kts | 68° |
| 2026-04-28 03:15 | 10.36932 | -83.68043 | 9098 ft | 169 kts | 68° |
| 2026-04-28 03:15 | 10.37357 | -83.66946 | 8848 ft | 169 kts | 68° |
| 2026-04-28 03:15 | 10.37788 | -83.65839 | 8604 ft | 168 kts | 68° |
| 2026-04-28 03:15 | 10.38220 | -83.64734 | 8358 ft | 168 kts | 68° |
| 2026-04-28 03:16 | 10.38652 | -83.63634 | 8115 ft | 167 kts | 68° |
| 2026-04-28 03:16 | 10.39085 | -83.62538 | 7875 ft | 167 kts | 68° |
| 2026-04-28 03:16 | 10.39521 | -83.61446 | 7642 ft | 166 kts | 68° |
| 2026-04-28 03:16 | 10.39955 | -83.60360 | 7398 ft | 166 kts | 68° |
| 2026-04-28 03:17 | 10.40391 | -83.59276 | 7161 ft | 166 kts | 68° |
| 2026-04-28 03:17 | 10.41269 | -83.57113 | 6694 ft | 164 kts | 68° |
| 2026-04-28 03:17 | 10.41705 | -83.56046 | 6466 ft | 163 kts | 68° |
| 2026-04-28 03:18 | 10.42143 | -83.54984 | 6222 ft | 163 kts | 68° |
| 2026-04-28 03:18 | 10.42576 | -83.53920 | 5975 ft | 163 kts | 69° |
| 2026-04-28 03:18 | 10.43140 | -83.52980 | 5721 ft | 148 kts | 54° |
| 2026-04-28 03:18 | 10.43739 | -83.52190 | 5411 ft | 141 kts | 54° |
| 2026-04-28 03:19 | 10.44338 | -83.51397 | 5045 ft | 141 kts | 54° |
| 2026-04-28 03:19 | 10.45090 | -83.50762 | 4684 ft | 143 kts | 30° |
| 2026-04-28 03:19 | 10.45975 | -83.50297 | 4309 ft | 143 kts | 31° |
| 2026-04-28 03:19 | 10.46874 | -83.49864 | 3941 ft | 143 kts | 25° |
| 2026-04-28 03:20 | 10.47788 | -83.49476 | 3577 ft | 142 kts | 26° |
| 2026-04-28 03:20 | 10.48717 | -83.49087 | 2876 ft | 151 kts | 23° |
| 2026-04-28 03:20 | 10.49785 | -83.48740 | 1812 ft | 166 kts | 19° |
| 2026-04-28 03:20 | 10.50918 | -83.48660 | 988 ft | 165 kts | 352° |
| 2026-04-28 03:21 | 10.51928 | -83.49116 | 569 ft | 149 kts | 332° |
| 2026-04-28 03:21 | 10.52764 | -83.49580 | 363 ft | 127 kts | 338° |
| 2026-04-28 03:21 | 10.53502 | -83.49942 | 365 ft | 109 kts | 337° |
| 2026-04-28 03:21 | 10.54136 | -83.50245 | 384 ft | 98 kts | 337° |
| 2026-04-28 03:22 | 10.54752 | -83.50525 | 319 ft | 97 kts | 338° |
| 2026-04-28 03:22 | 10.55366 | -83.50812 | 250 ft | 97 kts | 336° |
| 2026-04-28 03:22 | 10.55979 | -83.51086 | 173 ft | 92 kts | 338° |
| 2026-04-28 03:22 | 10.56548 | -83.51339 | 18 ft | 85 kts | 340° |
| 2026-04-28 03:23 | 10.57018 | -83.51552 | 14 ft | 44 kts | 335° |
| 2026-04-28 03:23 | 10.57162 | -83.51618 | 13 ft | 21 kts | 334° |
| 2026-04-28 03:23 | 10.57221 | -83.51668 | 14 ft | 11 kts | 301° |
| 2026-04-28 03:23 | 10.57241 | -83.51675 | 14 ft | 0 kts | 76° |
| 2026-04-28 03:42 | 10.57237 | -83.51664 | 14 ft | 6 kts | 126° |
| 2026-04-28 03:43 | 10.57135 | -83.51605 | 13 ft | 38 kts | 156° |
| 2026-04-28 03:43 | 10.56997 | -83.51549 | 14 ft | 0 kts | 176° |
| 2026-04-28 03:44 | 10.56993 | -83.51547 | 14 ft | 0 kts | 158° |
| 2026-04-28 03:44 | 10.56962 | -83.51534 | 15 ft | 12 kts | 155° |
| 2026-04-28 03:44 | 10.56942 | -83.51526 | 15 ft | 0 kts | 167° |
| 2026-04-28 03:45 | 10.56860 | -83.51487 | 14 ft | 42 kts | 153° |
| 2026-04-28 03:45 | 10.56413 | -83.51274 | 57 ft | 93 kts | 153° |
| 2026-04-28 03:45 | 10.55801 | -83.51001 | 428 ft | 97 kts | 154° |
| 2026-04-28 03:46 | 10.55136 | -83.51000 | 777 ft | 105 kts | 201° |
| 2026-04-28 03:46 | 10.54486 | -83.51448 | 1103 ft | 115 kts | 210° |
| 2026-04-28 03:46 | 10.53805 | -83.51902 | 1444 ft | 123 kts | 208° |
| 2026-04-28 03:46 | 10.53063 | -83.52485 | 1608 ft | 143 kts | 221° |
| 2026-04-28 03:47 | 10.52488 | -83.53248 | 2083 ft | 135 kts | 246° |
| 2026-04-28 03:47 | 10.51992 | -83.54088 | 2338 ft | 142 kts | 226° |
| 2026-04-28 03:47 | 10.51410 | -83.54882 | 2772 ft | 136 kts | 229° |
| 2026-04-28 03:47 | 10.50622 | -83.55305 | 3148 ft | 128 kts | 183° |
| 2026-04-28 03:48 | 10.49776 | -83.55585 | 3500 ft | 132 kts | 212° |
| 2026-04-28 03:48 | 10.49068 | -83.56171 | 3861 ft | 130 kts | 215° |
| 2026-04-28 03:48 | 10.48370 | -83.56750 | 4221 ft | 128 kts | 216° |
| 2026-04-28 03:48 | 10.47688 | -83.57330 | 4583 ft | 128 kts | 216° |
| 2026-04-28 03:49 | 10.47016 | -83.57910 | 4940 ft | 126 kts | 216° |
| 2026-04-28 03:49 | 10.46355 | -83.58478 | 5289 ft | 124 kts | 216° |
| 2026-04-28 03:49 | 10.45701 | -83.59042 | 5648 ft | 122 kts | 216° |
| 2026-04-28 03:49 | 10.45061 | -83.59595 | 6000 ft | 118 kts | 216° |
| 2026-04-28 03:50 | 10.44446 | -83.60124 | 6353 ft | 113 kts | 216° |
| 2026-04-28 03:50 | 10.43860 | -83.60629 | 6675 ft | 107 kts | 216° |
| 2026-04-28 03:50 | 10.43310 | -83.61100 | 7003 ft | 99 kts | 215° |
| 2026-04-28 03:50 | 10.42807 | -83.61530 | 7285 ft | 92 kts | 214° |
| 2026-04-28 03:51 | 10.42332 | -83.61938 | 7535 ft | 86 kts | 214° |
| 2026-04-28 03:51 | 10.41844 | -83.62354 | 7672 ft | 97 kts | 216° |
| 2026-04-28 03:51 | 10.41311 | -83.62815 | 7838 ft | 105 kts | 216° |
| 2026-04-28 03:51 | 10.40733 | -83.63316 | 8014 ft | 113 kts | 217° |
| 2026-04-28 03:52 | 10.40109 | -83.63856 | 8199 ft | 121 kts | 217° |
| 2026-04-28 03:52 | 10.39447 | -83.64427 | 8372 ft | 129 kts | 218° |
| 2026-04-28 03:52 | 10.38745 | -83.65034 | 8506 ft | 139 kts | 218° |
| 2026-04-28 03:52 | 10.37966 | -83.65705 | 8513 ft | 154 kts | 218° |
| 2026-04-28 03:53 | 10.37122 | -83.66434 | 8511 ft | 164 kts | 218° |
| 2026-04-28 03:53 | 10.36237 | -83.67198 | 8515 ft | 169 kts | 218° |
| 2026-04-28 03:53 | 10.35330 | -83.67978 | 8515 ft | 172 kts | 218° |
| 2026-04-28 03:53 | 10.34412 | -83.68769 | 8513 ft | 174 kts | 218° |
| 2026-04-28 03:54 | 10.33488 | -83.69565 | 8515 ft | 175 kts | 218° |
| 2026-04-28 03:54 | 10.32559 | -83.70364 | 8514 ft | 175 kts | 219° |
| 2026-04-28 03:54 | 10.31630 | -83.71163 | 8517 ft | 175 kts | 218° |
| 2026-04-28 03:54 | 10.30697 | -83.71966 | 8520 ft | 176 kts | 219° |
| 2026-04-28 03:55 | 10.29778 | -83.72758 | 8526 ft | 176 kts | 219° |
| 2026-04-28 03:55 | 10.28837 | -83.73568 | 8528 ft | 176 kts | 219° |
| 2026-04-28 03:55 | 10.27907 | -83.74367 | 8526 ft | 176 kts | 218° |
| 2026-04-28 03:55 | 10.26970 | -83.75174 | 8529 ft | 177 kts | 219° |
| 2026-04-28 03:56 | 10.26029 | -83.75983 | 8530 ft | 177 kts | 218° |
| 2026-04-28 03:56 | 10.25089 | -83.76792 | 8530 ft | 177 kts | 219° |
| 2026-04-28 03:56 | 10.24150 | -83.77599 | 8535 ft | 177 kts | 219° |
| 2026-04-28 03:56 | 10.23211 | -83.78407 | 8537 ft | 177 kts | 219° |
| 2026-04-28 03:57 | 10.22268 | -83.79218 | 8537 ft | 177 kts | 219° |
| 2026-04-28 03:57 | 10.21327 | -83.80027 | 8541 ft | 177 kts | 219° |
| 2026-04-28 03:57 | 10.20385 | -83.80837 | 8542 ft | 178 kts | 219° |
| 2026-04-28 03:57 | 10.19441 | -83.81649 | 8547 ft | 178 kts | 219° |
| 2026-04-28 03:58 | 10.18495 | -83.82463 | 8547 ft | 178 kts | 219° |
| 2026-04-28 03:58 | 10.17548 | -83.83277 | 8551 ft | 178 kts | 219° |
| 2026-04-28 03:58 | 10.16602 | -83.84090 | 8555 ft | 178 kts | 219° |
| 2026-04-28 03:58 | 10.15657 | -83.84903 | 8553 ft | 178 kts | 219° |
| 2026-04-28 03:59 | 10.14710 | -83.85716 | 8556 ft | 179 kts | 219° |
| 2026-04-28 03:59 | 10.13759 | -83.86533 | 8554 ft | 179 kts | 219° |
| 2026-04-28 03:59 | 10.12810 | -83.87349 | 8561 ft | 179 kts | 219° |
| 2026-04-28 03:59 | 10.11861 | -83.88164 | 8560 ft | 179 kts | 219° |
| 2026-04-28 04:00 | 10.10917 | -83.88976 | 8566 ft | 176 kts | 219° |
| 2026-04-28 04:00 | 10.09989 | -83.89773 | 8572 ft | 178 kts | 219° |
| 2026-04-28 04:00 | 10.09036 | -83.90592 | 8575 ft | 180 kts | 219° |
| 2026-04-28 04:00 | 10.08077 | -83.91416 | 8577 ft | 180 kts | 219° |
| 2026-04-28 04:01 | 10.07116 | -83.92241 | 8583 ft | 181 kts | 218° |
| 2026-04-28 04:01 | 10.06150 | -83.93070 | 8584 ft | 181 kts | 219° |
| 2026-04-28 04:01 | 10.05213 | -83.93923 | 8583 ft | 182 kts | 229° |
| 2026-04-28 04:01 | 10.04585 | -83.95038 | 8583 ft | 182 kts | 244° |
| 2026-04-28 04:02 | 10.04024 | -83.96207 | 8437 ft | 186 kts | 244° |
| 2026-04-28 04:02 | 10.03520 | -83.97382 | 8195 ft | 178 kts | 251° |
| 2026-04-28 04:02 | 10.03157 | -83.98575 | 7949 ft | 175 kts | 254° |
| 2026-04-28 04:02 | 10.02948 | -83.99768 | 7707 ft | 173 kts | 266° |
| 2026-04-28 04:03 | 10.02952 | -84.00988 | 7464 ft | 171 kts | 274° |
| 2026-04-28 04:03 | 10.02999 | -84.02187 | 7227 ft | 170 kts | 274° |
| 2026-04-28 04:03 | 10.03048 | -84.03384 | 6993 ft | 169 kts | 274° |
| 2026-04-28 04:03 | 10.03119 | -84.04562 | 6765 ft | 168 kts | 281° |
| 2026-04-28 04:04 | 10.03378 | -84.05726 | 6537 ft | 168 kts | 285° |
| 2026-04-28 04:04 | 10.03624 | -84.06913 | 6297 ft | 171 kts | 282° |
| 2026-04-28 04:04 | 10.03843 | -84.08088 | 6053 ft | 172 kts | 283° |
| 2026-04-28 04:04 | 10.04062 | -84.09289 | 5836 ft | 174 kts | 282° |
| 2026-04-28 04:05 | 10.04216 | -84.10505 | 5586 ft | 173 kts | 276° |
| 2026-04-28 04:05 | 10.04246 | -84.11728 | 5337 ft | 172 kts | 272° |
| 2026-04-28 04:05 | 10.04247 | -84.12930 | 5142 ft | 168 kts | 271° |
| 2026-04-28 04:05 | 10.04132 | -84.14078 | 5128 ft | 159 kts | 261° |
| 2026-04-28 04:06 | 10.03907 | -84.15158 | 5120 ft | 155 kts | 253° |
| 2026-04-28 04:06 | 10.03539 | -84.16183 | 5085 ft | 156 kts | 246° |
| 2026-04-28 04:06 | 10.03026 | -84.17186 | 4888 ft | 162 kts | 240° |
| 2026-04-28 04:06 | 10.02455 | -84.18184 | 4614 ft | 164 kts | 241° |
| 2026-04-28 04:07 | 10.01916 | -84.19192 | 4402 ft | 159 kts | 243° |
| 2026-04-28 04:07 | 10.01398 | -84.20149 | 4249 ft | 151 kts | 240° |
| 2026-04-28 04:07 | 10.00902 | -84.21068 | 4102 ft | 147 kts | 244° |
| 2026-04-28 04:07 | 10.00445 | -84.21991 | 3947 ft | 145 kts | 241° |
| 2026-04-28 04:08 | 9.99959 | -84.22776 | 3987 ft | 120 kts | 237° |
| 2026-04-28 04:08 | 9.99369 | -84.23367 | 3737 ft | 120 kts | 199° |
| 2026-04-28 04:08 | 9.98721 | -84.23105 | 3283 ft | 108 kts | 106° |
| 2026-04-28 04:08 | 9.98807 | -84.22449 | 3038 ft | 85 kts | 70° |
| 2026-04-28 04:09 | 9.98988 | -84.21968 | 2958 ft | 60 kts | 68° |
| 2026-04-28 04:09 | 9.99045 | -84.21806 | 2969 ft | 6 kts | 65° |
| 2026-04-28 04:09 | 9.99078 | -84.21729 | 2972 ft | 18 kts | 70° |
| 2026-04-28 04:09 | 9.99143 | -84.21547 | 2981 ft | 35 kts | 69° |
| 2026-04-28 04:10 | 9.99198 | -84.21399 | 2987 ft | 16 kts | 68° |
| 2026-04-28 04:10 | 9.99251 | -84.21259 | 2994 ft | 27 kts | 69° |
| 2026-04-28 04:10 | 9.99307 | -84.21162 | 3002 ft | 10 kts | 27° |
| 2026-04-28 04:10 | 9.99358 | -84.21174 | 3003 ft | 10 kts | 306° |
| 2026-04-28 04:11 | 9.99333 | -84.21296 | 2997 ft | 26 kts | 250° |
| 2026-04-28 04:11 | 9.99252 | -84.21511 | 2980 ft | 35 kts | 249° |
| 2026-04-28 04:11 | 9.99161 | -84.21752 | 2966 ft | 41 kts | 248° |
| 2026-04-28 04:11 | 9.99069 | -84.22024 | 2954 ft | 36 kts | 250° |
| 2026-04-28 04:12 | 9.98999 | -84.22149 | 2949 ft | 13 kts | 205° |
| 2026-04-28 04:12 | 9.98938 | -84.22134 | 2947 ft | 12 kts | 112° |
| 2026-04-28 04:12 | 9.98989 | -84.21954 | 2959 ft | 48 kts | 69° |
| 2026-04-28 04:12 | 9.99169 | -84.21474 | 2986 ft | 95 kts | 69° |
| 2026-04-28 04:13 | 9.99439 | -84.20762 | 3077 ft | 122 kts | 69° |
| 2026-04-28 04:13 | 9.99248 | -84.19973 | 3397 ft | 128 kts | 144° |
| 2026-04-28 04:13 | 9.98409 | -84.19593 | 3716 ft | 134 kts | 151° |
| 2026-04-28 04:13 | 9.97560 | -84.19145 | 3986 ft | 140 kts | 147° |
| 2026-04-28 04:14 | 9.96779 | -84.18539 | 4204 ft | 143 kts | 129° |
| 2026-04-28 04:14 | 9.96266 | -84.17684 | 4225 ft | 138 kts | 111° |
| 2026-04-28 04:14 | 9.96056 | -84.17128 | 4122 ft | 119 kts | 105° |
| 2026-04-28 04:14 | 9.95899 | -84.16327 | 3789 ft | 113 kts | 93° |
| 2026-04-28 04:15 | 9.95854 | -84.15561 | 3529 ft | 104 kts | 95° |
| 2026-04-28 04:15 | 9.95793 | -84.14919 | 3354 ft | 81 kts | 91° |
| 2026-04-28 04:15 | 9.95765 | -84.14299 | 3306 ft | 10 kts | 13° |
| 2026-04-28 04:16 | 9.95844 | -84.14293 | 3302 ft | 15 kts | 5° |
| 2026-04-28 04:16 | 9.95901 | -84.14311 | 3298 ft | 6 kts | 244° |
| 2026-04-28 04:16 | 9.95897 | -84.14313 | 3298 ft | 0 kts | 184° |
| 2026-04-28 04:16 | 9.95896 | -84.14313 | 3298 ft | 0 kts | 184° |